Time;durP1;ratioP1;P1;durP2;ratioP2;P2;SDS_P1;SDS_P2;PMS_P1;PMS_P2;Temp;Humidity;BMP_temperature;BMP_pressure;BME280_temperature;BME280_humidity;BME280_pressure;Samples;Min_cycle;Max_cycle;Signal;HPM_P1;HPM_P2
2023/03/02 00:01:38;;;;;;;3.87;3.50;;;;;;;7.81;61.69;95236.06;5004079;28;20246;-65
2023/03/02 00:04:08;;;;;;;4.20;3.70;;;;;;;7.88;61.55;95231.94;4971180;28;20597;-65
2023/03/02 00:06:35;;;;;;;3.33;3.03;;;;;;;7.81;61.28;95225.56;4958750;28;20363;-65
2023/03/02 00:09:01;;;;;;;3.23;2.93;;;;;;;7.83;61.12;95228.03;4965738;28;20312;-65
2023/03/02 00:11:29;;;;;;;3.10;2.80;;;;;;;7.74;61.29;95235.72;4964904;28;20225;-65
2023/03/02 00:13:54;;;;;;;3.23;2.93;;;;;;;7.79;60.99;95235.34;4966987;28;20215;-66
2023/03/02 00:16:20;;;;;;;4.07;3.13;;;;;;;7.82;61.17;95229.84;4966139;28;20223;-64
2023/03/02 00:18:45;;;;;;;3.60;3.23;;;;;;;7.78;61.10;95231.06;4962742;28;20271;-64
2023/03/02 00:21:11;;;;;;;3.77;3.47;;;;;;;7.64;61.62;95223.53;4965411;28;20236;-65
2023/03/02 00:23:37;;;;;;;3.27;2.93;;;;;;;7.63;61.37;95222.72;4963989;28;20293;-64
2023/03/02 00:26:04;;;;;;;3.30;3.10;;;;;;;7.70;61.32;95226.47;4964018;28;20188;-64
2023/03/02 00:28:30;;;;;;;3.23;3.00;;;;;;;7.72;61.20;95221.09;4964671;28;20208;-64
2023/03/02 00:30:55;;;;;;;3.43;3.13;;;;;;;7.63;61.59;95222.72;4965858;28;20222;-64
2023/03/02 00:33:21;;;;;;;3.43;3.13;;;;;;;7.62;61.80;95217.63;4963706;28;20306;-64
2023/03/02 00:35:46;;;;;;;3.50;3.20;;;;;;;7.62;62.06;95197.50;4967267;28;20220;-65
2023/03/02 00:38:12;;;;;;;3.70;3.40;;;;;;;7.59;62.13;95199.53;4964467;28;20192;-67
2023/03/02 00:40:43;;;;;;;4.47;3.43;;;;;;;7.47;62.27;95199.63;4966640;28;20216;-65
2023/03/02 00:43:08;;;;;;;3.17;2.87;;;;;;;7.44;62.64;95192.03;4980123;28;20228;-65
2023/03/02 00:45:34;;;;;;;3.57;3.27;;;;;;;7.35;62.86;95191.94;4966186;28;20355;-65
2023/03/02 00:47:59;;;;;;;3.33;3.03;;;;;;;7.40;62.87;95195.84;4964864;28;20227;-65
2023/03/02 00:50:25;;;;;;;3.23;2.97;;;;;;;7.44;62.92;95197.25;4961517;28;20220;-65
2023/03/02 00:52:50;;;;;;;3.13;2.93;;;;;;;7.35;63.01;95191.94;4967302;28;20206;-65
2023/03/02 00:55:16;;;;;;;3.40;3.10;;;;;;;7.45;63.06;95187.63;4968677;28;20238;-65
2023/03/02 00:57:41;;;;;;;3.10;2.73;;;;;;;7.36;63.41;95184.00;4968204;28;20319;-65
2023/03/02 01:00:08;;;;;;;3.30;3.10;;;;;;;7.39;63.07;95180.28;4964236;28;20240;-65
2023/03/02 01:02:33;;;;;;;3.10;2.90;;;;;;;7.30;63.36;95187.13;4949915;28;20294;-64
2023/03/02 01:04:59;;;;;;;2.93;2.73;;;;;;;7.30;63.36;95179.28;4962098;28;20199;-65
2023/03/02 01:07:25;;;;;;;3.23;2.93;;;;;;;7.31;63.26;95172.25;4964444;28;20263;-65
2023/03/02 01:09:51;;;;;;;3.30;3.03;;;;;;;7.30;63.34;95171.44;4965939;28;20228;-65
2023/03/02 01:12:16;;;;;;;3.03;2.80;;;;;;;7.38;63.14;95171.63;4964384;28;20228;-65
2023/03/02 01:14:45;;;;;;;2.83;2.63;;;;;;;7.38;62.86;95163.78;4963277;28;20270;-65
2023/03/02 01:17:11;;;;;;;2.83;2.63;;;;;;;7.37;62.92;95163.88;4970054;28;20200;-65
2023/03/02 01:19:38;;;;;;;2.30;2.20;;;;;;;7.29;63.30;95159.28;4966559;28;20243;-65
2023/03/02 01:22:04;;;;;;;2.37;2.27;;;;;;;7.36;63.10;95163.06;4963359;28;20225;-65
2023/03/02 01:24:31;;;;;;;2.00;1.90;;;;;;;7.25;63.26;95150.88;4963372;28;20239;-65
2023/03/02 01:26:56;;;;;;;2.63;2.43;;;;;;;7.18;63.39;95169.81;4966463;28;20228;-65
2023/03/02 01:29:21;;;;;;;2.53;1.93;;;;;;;7.18;63.40;95169.81;4966343;28;20228;-65
2023/03/02 01:31:47;;;;;;;3.50;2.20;;;;;;;7.21;63.23;95165.16;4966217;28;20185;-65
2023/03/02 01:34:13;;;;;;;2.30;2.10;;;;;;;7.28;63.19;95165.50;4965782;28;20220;-65
2023/03/02 01:36:38;;;;;;;2.33;2.13;;;;;;;7.33;62.77;95158.09;4985009;28;20265;-65
2023/03/02 01:39:04;;;;;;;2.00;1.90;;;;;;;7.32;63.12;95159.03;4975381;28;20317;-65
2023/03/02 01:41:30;;;;;;;2.23;2.03;;;;;;;7.25;63.27;95168.38;4966590;28;20224;-65
2023/03/02 01:43:55;;;;;;;1.90;1.80;;;;;;;7.34;63.38;95164.16;4965943;28;20297;-66
2023/03/02 01:46:25;;;;;;;1.73;1.63;;;;;;;7.38;62.98;95155.91;4963631;28;20286;-65
2023/03/02 01:48:59;;;;;;;1.97;1.87;;;;;;;7.34;62.91;95149.28;4965745;28;20294;-66
2023/03/02 01:51:26;;;;;;;1.97;1.87;;;;;;;7.28;63.01;95152.41;4961690;28;20236;-65
2023/03/02 01:53:57;;;;;;;2.00;1.90;;;;;;;7.38;62.94;95155.91;4966272;28;20228;-65
2023/03/02 01:56:29;;;;;;;2.03;1.87;;;;;;;7.36;62.90;95143.94;4966960;28;20234;-65
2023/03/02 01:59:02;;;;;;;2.60;1.90;;;;;;;7.14;63.89;95150.13;4963788;28;20193;-65
2023/03/02 02:01:31;;;;;;;2.10;1.63;;;;;;;7.30;63.37;95145.28;4985045;28;20298;-65
2023/03/02 02:03:56;;;;;;;1.77;1.67;;;;;;;7.20;63.22;95147.81;4987243;28;20215;-66
2023/03/02 02:06:35;;;;;;;1.90;1.50;;;;;;;7.20;63.19;95137.34;4981896;28;20271;-66
2023/03/02 02:09:03;;;;;;;1.97;1.77;;;;;;;7.26;62.94;95141.25;4980472;28;20283;-65
2023/03/02 02:11:29;;;;;;;1.70;1.60;;;;;;;7.29;62.84;95133.97;4984498;28;20215;-66
2023/03/02 02:13:58;;;;;;;1.63;1.53;;;;;;;7.08;63.52;95148.81;4986114;28;20227;-65
2023/03/02 02:16:25;;;;;;;1.90;1.80;;;;;;;7.17;63.58;95145.47;4983234;28;20247;-66
2023/03/02 02:18:51;;;;;;;2.37;1.97;;;;;;;7.01;64.20;95145.09;4984765;28;20265;-65
2023/03/02 02:21:18;;;;;;;2.10;1.93;;;;;;;7.06;63.80;95145.53;4983091;28;20238;-65
2023/03/02 02:24:12;;;;;;;3.27;1.70;;;;;;;6.84;64.45;95149.06;4984932;28;20251;-66
2023/03/02 02:26:48;;;;;;;1.70;1.60;;;;;;;7.11;64.10;95152.97;4978305;28;20215;-65
2023/03/02 02:29:26;;;;;;;2.10;1.90;;;;;;;7.10;63.87;95138.25;4980415;28;20196;-65
2023/03/02 02:32:11;;;;;;;2.30;2.10;;;;;;;6.88;64.42;95141.81;4987725;28;20202;-65
2023/03/02 02:34:43;;;;;;;2.10;1.90;;;;;;;6.96;64.47;95150.69;4978629;28;20215;-65
2023/03/02 02:37:20;;;;;;;2.10;1.90;;;;;;;7.08;63.63;95143.59;4983443;28;20223;-65
2023/03/02 02:39:47;;;;;;;1.70;1.60;;;;;;;6.86;64.21;95144.53;4980490;28;20396;-65
2023/03/02 02:42:18;;;;;;;2.20;1.73;;;;;;;6.95;64.10;95143.81;4971402;28;20353;-65
2023/03/02 02:44:45;;;;;;;1.90;1.80;;;;;;;7.03;64.02;95146.63;4983100;28;20592;-65
2023/03/02 02:47:20;;;;;;;2.17;1.97;;;;;;;6.81;64.99;95146.69;4984051;28;20319;-64
2023/03/02 02:49:48;;;;;;;2.07;1.93;;;;;;;6.90;64.22;95143.34;4982224;28;20229;-65
2023/03/02 02:52:18;;;;;;;1.60;1.50;;;;;;;6.91;64.16;95145.00;4985500;28;20226;-65
2023/03/02 02:54:46;;;;;;;2.20;2.00;;;;;;;6.99;63.92;95142.56;4980472;28;20216;-65
2023/03/02 02:57:16;;;;;;;2.30;2.00;;;;;;;7.01;64.07;95139.84;4984200;28;20226;-65
2023/03/02 02:59:48;;;;;;;3.07;1.90;;;;;;;6.89;64.33;95139.06;4985370;28;20263;-64
2023/03/02 03:02:25;;;;;;;1.70;1.60;;;;;;;6.83;64.39;95137.78;4981192;28;20236;-65
2023/03/02 03:04:51;;;;;;;2.23;2.03;;;;;;;6.87;64.10;95124.47;4982789;28;20195;-64
2023/03/02 03:07:24;;;;;;;2.23;2.03;;;;;;;6.99;64.05;95129.50;4984991;28;20306;-65
2023/03/02 03:10:11;;;;;;;2.23;2.03;;;;;;;6.93;64.02;95134.44;4997174;28;20211;-65
2023/03/02 03:12:38;;;;;;;3.03;2.10;;;;;;;6.80;64.40;95130.19;4975867;28;20232;-65
2023/03/02 03:15:05;;;;;;;3.83;2.23;;;;;;;6.71;64.81;95128.34;4982912;28;20306;-65
2023/03/02 03:17:31;;;;;;;2.60;2.30;;;;;;;6.87;64.45;95132.28;4985858;28;20215;-66
2023/03/02 03:20:04;;;;;;;2.70;2.20;;;;;;;6.90;63.97;95127.66;4986174;28;20207;-65
2023/03/02 03:22:33;;;;;;;3.07;2.20;;;;;;;7.02;63.78;95128.44;4969854;28;20236;-66
2023/03/02 03:24:58;;;;;;;2.00;1.90;;;;;;;6.98;64.02;95129.66;4965884;28;20245;-65
2023/03/02 03:27:23;;;;;;;4.23;2.33;;;;;;;7.06;63.57;95132.47;4964563;28;20260;-65
2023/03/02 03:29:49;;;;;;;2.43;2.00;;;;;;;7.02;63.41;95129.25;4961327;28;20252;-66
2023/03/02 03:32:16;;;;;;;2.20;1.90;;;;;;;6.89;63.53;95133.84;4965149;28;20497;-65
2023/03/02 03:34:42;;;;;;;2.40;2.20;;;;;;;6.91;63.94;95131.94;4965427;28;20211;-66
2023/03/02 03:37:09;;;;;;;2.33;2.13;;;;;;;6.97;64.09;95133.19;4965200;28;20225;-66
2023/03/02 03:39:35;;;;;;;3.40;2.03;;;;;;;7.07;63.32;95132.31;4970514;28;20232;-65
2023/03/02 03:42:01;;;;;;;3.30;2.10;;;;;;;6.93;63.95;95143.09;4966503;28;20232;-66
2023/03/02 03:44:26;;;;;;;2.47;2.27;;;;;;;6.90;64.02;95129.47;4970734;28;20302;-65
2023/03/02 03:46:52;;;;;;;2.30;2.10;;;;;;;6.84;64.40;95125.53;4969171;28;20181;-65
2023/03/02 03:49:17;;;;;;;2.30;2.10;;;;;;;6.91;64.07;95126.69;4965685;28;20238;-65
2023/03/02 03:51:43;;;;;;;2.30;2.10;;;;;;;6.92;64.22;95128.34;4966045;28;20247;-65
2023/03/02 03:54:09;;;;;;;2.20;2.00;;;;;;;6.89;63.99;95131.22;4961423;28;20228;-65
2023/03/02 03:56:45;;;;;;;2.13;1.93;;;;;;;6.91;63.98;95129.31;4966108;28;20240;-65
2023/03/02 03:59:13;;;;;;;3.00;2.30;;;;;;;6.86;64.12;95136.69;4964929;28;20216;-65
2023/03/02 04:01:55;;;;;;;2.40;2.20;;;;;;;6.96;63.79;95132.38;4982245;28;20242;-65
2023/03/02 04:04:29;;;;;;;2.40;2.20;;;;;;;6.94;63.81;95128.22;4968561;28;20216;-65
2023/03/02 04:06:55;;;;;;;2.63;2.43;;;;;;;6.77;64.15;95129.63;4970111;28;20228;-65
2023/03/02 04:09:21;;;;;;;3.10;2.20;;;;;;;6.82;64.45;95130.91;4965870;28;20251;-65
2023/03/02 04:11:50;;;;;;;2.10;2.00;;;;;;;6.73;64.57;95128.22;4982400;28;20216;-65
2023/03/02 04:14:16;;;;;;;2.50;2.30;;;;;;;6.87;64.16;95135.78;4965157;28;20227;-65
2023/03/02 04:16:42;;;;;;;3.67;2.60;;;;;;;6.85;64.08;95129.81;4969851;28;20192;-65
2023/03/02 04:19:09;;;;;;;3.57;2.97;;;;;;;6.91;64.24;95133.72;4966342;28;20264;-67
2023/03/02 04:21:40;;;;;;;2.80;2.57;;;;;;;6.79;64.21;95131.16;4957479;28;20232;-64
2023/03/02 04:24:08;;;;;;;2.90;2.53;;;;;;;6.85;64.35;95132.44;4964394;28;20322;-66
2023/03/02 04:26:35;;;;;;;2.53;2.30;;;;;;;7.01;63.84;95132.00;4964131;28;20649;-65
2023/03/02 04:29:00;;;;;;;2.30;2.10;;;;;;;6.99;64.21;95129.50;4972046;28;20192;-65
2023/03/02 04:31:26;;;;;;;2.73;2.53;;;;;;;6.93;64.50;95118.75;4974094;28;20232;-64
2023/03/02 04:33:51;;;;;;;2.30;2.10;;;;;;;7.00;64.64;95117.25;4973685;28;20227;-66
2023/03/02 04:36:18;;;;;;;2.40;2.20;;;;;;;6.99;64.67;95118.22;4973413;28;20220;-67
2023/03/02 04:38:44;;;;;;;3.07;2.40;;;;;;;6.78;65.48;95115.59;4971501;28;20228;-65
2023/03/02 04:41:09;;;;;;;2.97;2.77;;;;;;;6.91;65.20;95124.09;4971200;28;20199;-63
2023/03/02 04:43:35;;;;;;;3.27;2.97;;;;;;;6.95;65.38;95132.50;4966070;28;20203;-67
2023/03/02 04:46:00;;;;;;;3.23;2.93;;;;;;;6.96;65.08;95140.22;4966883;28;20299;-66
2023/03/02 04:48:26;;;;;;;4.00;3.63;;;;;;;6.79;65.70;95140.75;4967047;28;20220;-66
2023/03/02 04:50:51;;;;;;;4.30;3.80;;;;;;;6.83;66.23;95137.78;4963318;28;20220;-66
2023/03/02 04:53:17;;;;;;;4.17;3.87;;;;;;;6.88;66.05;95142.63;4964192;28;20311;-67
2023/03/02 04:55:42;;;;;;;4.67;4.27;;;;;;;6.85;66.15;95142.91;4965470;28;20192;-64
2023/03/02 04:58:08;;;;;;;4.50;4.10;;;;;;;6.92;66.33;95137.97;4968386;28;20220;-64
2023/03/02 05:00:34;;;;;;;4.60;4.20;;;;;;;6.79;65.99;95146.84;4963294;28;20231;-64
2023/03/02 05:03:01;;;;;;;4.20;3.90;;;;;;;6.83;66.05;95150.03;4962256;28;20646;-69
2023/03/02 05:05:27;;;;;;;4.23;3.87;;;;;;;6.80;66.60;95137.22;4967927;28;20231;-64
2023/03/02 05:07:53;;;;;;;3.47;3.27;;;;;;;6.87;65.92;95135.78;4967044;28;20227;-65
2023/03/02 05:10:20;;;;;;;4.13;3.73;;;;;;;6.85;66.04;95135.06;4966139;28;20240;-65
2023/03/02 05:13:03;;;;;;;4.17;3.87;;;;;;;6.96;65.68;95147.25;4962349;28;20236;-63
2023/03/02 05:15:35;;;;;;;4.00;3.70;;;;;;;6.91;66.31;95147.63;4966805;28;20244;-63
2023/03/02 05:18:02;;;;;;;4.37;4.07;;;;;;;6.95;65.51;95153.41;4964925;28;20228;-63
2023/03/02 05:20:29;;;;;;;4.20;3.90;;;;;;;6.99;65.86;95154.81;4962631;28;20312;-67
2023/03/02 05:22:57;;;;;;;4.23;3.93;;;;;;;7.01;65.49;95148.50;4962003;28;20197;-66
2023/03/02 05:25:24;;;;;;;4.07;3.77;;;;;;;7.04;65.62;95155.28;4962885;28;20252;-64
2023/03/02 05:27:51;;;;;;;4.30;3.90;;;;;;;7.00;65.71;95154.72;4964584;28;20220;-68
2023/03/02 05:30:17;;;;;;;4.00;3.57;;;;;;;7.05;65.54;95149.91;4961379;28;20243;-63
2023/03/02 05:32:42;;;;;;;4.17;3.90;;;;;;;6.93;65.36;95156.16;4964015;28;20216;-67
2023/03/02 05:35:08;;;;;;;4.80;4.40;;;;;;;6.99;65.74;95157.44;4964427;28;20192;-64
2023/03/02 05:37:34;;;;;;;5.10;4.67;;;;;;;7.06;65.60;95156.00;4966440;28;20192;-64
2023/03/02 05:39:59;;;;;;;4.97;4.57;;;;;;;7.16;65.51;95158.66;4966185;28;20236;-64
2023/03/02 05:42:25;;;;;;;5.13;4.67;;;;;;;7.14;65.29;95158.78;4964254;28;20228;-69
2023/03/02 05:44:50;;;;;;;4.80;4.43;;;;;;;7.22;65.25;95156.38;4965120;28;20220;-66
2023/03/02 05:47:15;;;;;;;5.17;4.77;;;;;;;7.17;64.91;95163.78;4966700;28;20200;-62
2023/03/02 05:49:41;;;;;;;5.40;4.90;;;;;;;7.24;64.94;95166.69;4966825;28;20184;-64
2023/03/02 05:52:06;;;;;;;5.10;4.70;;;;;;;7.22;64.77;95164.22;4963304;28;20304;-62
2023/03/02 05:54:32;;;;;;;5.10;4.70;;;;;;;7.09;64.96;95166.19;4963875;28;20227;-66
2023/03/02 05:56:57;;;;;;;5.37;4.93;;;;;;;7.26;64.52;95159.56;4965342;28;20315;-66
2023/03/02 05:59:23;;;;;;;4.93;4.60;;;;;;;7.27;64.52;95164.66;4963951;28;20231;-66
2023/03/02 06:01:49;;;;;;;5.00;4.60;;;;;;;7.20;64.40;95163.50;4965902;28;20239;-66
2023/03/02 06:04:15;;;;;;;5.33;4.83;;;;;;;7.18;64.08;95161.97;4967843;28;20224;-66
2023/03/02 06:06:40;;;;;;;5.27;4.77;;;;;;;7.24;64.71;95169.31;4964373;28;20220;-65
2023/03/02 06:09:06;;;;;;;5.27;4.77;;;;;;;7.20;64.26;95175.75;4962685;28;20652;-67
2023/03/02 06:11:31;;;;;;;5.03;4.60;;;;;;;7.16;64.12;95171.72;4959261;28;20347;-67
2023/03/02 06:13:57;;;;;;;5.10;4.70;;;;;;;7.25;63.82;95173.59;4967242;28;20203;-66
2023/03/02 06:16:22;;;;;;;5.23;4.83;;;;;;;7.32;63.52;95179.97;4966111;28;20270;-65
2023/03/02 06:18:47;;;;;;;5.37;4.97;;;;;;;7.19;63.67;95185.41;4965040;28;20251;-66
2023/03/02 06:21:13;;;;;;;5.00;4.60;;;;;;;7.33;63.79;95186.88;4965741;28;20224;-66
2023/03/02 06:23:38;;;;;;;5.40;5.00;;;;;;;7.36;63.35;95185.78;4961759;28;20227;-66
2023/03/02 06:26:11;;;;;;;5.63;5.17;;;;;;;7.28;63.47;95181.19;4964238;28;20203;-67
2023/03/02 06:28:38;;;;;;;6.67;5.13;;;;;;;7.20;64.18;95187.03;4964060;28;20291;-68
2023/03/02 06:31:03;;;;;;;6.33;5.77;;;;;;;6.91;64.93;95184.22;4962529;28;20223;-66
2023/03/02 06:33:29;;;;;;;5.93;5.43;;;;;;;7.11;64.68;95185.22;4966975;28;20275;-67
2023/03/02 06:35:55;;;;;;;6.37;5.87;;;;;;;6.85;65.14;95196.00;4953030;28;20232;-67
2023/03/02 06:38:21;;;;;;;6.73;6.23;;;;;;;6.75;66.14;95195.06;4960884;28;20196;-66
2023/03/02 06:40:46;;;;;;;6.87;6.27;;;;;;;6.58;66.19;95188.59;4961635;28;20224;-66
2023/03/02 06:43:12;;;;;;;6.23;5.73;;;;;;;6.83;66.00;95186.63;4958712;28;20314;-66
2023/03/02 06:45:38;;;;;;;6.27;5.77;;;;;;;7.11;64.85;95176.50;4961909;28;20216;-66
2023/03/02 06:48:03;;;;;;;6.33;5.73;;;;;;;7.18;64.07;95186.34;4947469;28;20220;-65
2023/03/02 06:50:29;;;;;;;6.47;5.97;;;;;;;7.11;64.72;95189.56;4959713;28;20228;-66
2023/03/02 06:52:55;;;;;;;6.20;5.80;;;;;;;7.20;64.59;95194.91;4955427;28;20216;-66
2023/03/02 06:55:21;;;;;;;6.90;6.40;;;;;;;7.42;64.67;95198.34;4961516;28;20235;-66
2023/03/02 06:57:46;;;;;;;6.97;6.30;;;;;;;7.44;64.22;95196.44;4959982;28;20240;-66
2023/03/02 07:00:15;;;;;;;6.37;5.73;;;;;;;7.41;64.11;95191.47;4959385;28;20236;-64
2023/03/02 07:02:44;;;;;;;7.20;6.50;;;;;;;7.43;64.42;95194.75;4957995;28;20236;-64
2023/03/02 07:05:10;;;;;;;7.77;7.07;;;;;;;7.47;64.49;95185.72;4961776;28;20201;-64
2023/03/02 07:07:36;;;;;;;7.33;6.63;;;;;;;7.65;64.09;95184.16;4959929;28;20192;-65
2023/03/02 07:10:02;;;;;;;6.87;6.37;;;;;;;7.62;63.83;95175.75;4959528;28;20270;-64
2023/03/02 07:12:27;;;;;;;7.30;6.70;;;;;;;7.76;63.96;95183.25;4963907;28;20220;-64
2023/03/02 07:14:53;;;;;;;6.90;6.20;;;;;;;7.70;63.91;95186.41;4967045;28;20227;-63
2023/03/02 07:17:18;;;;;;;7.03;6.30;;;;;;;7.55;64.26;95193.75;4962265;28;20249;-67
2023/03/02 07:19:44;;;;;;;7.10;6.43;;;;;;;7.66;63.79;95185.81;4966962;28;20343;-66
2023/03/02 07:22:09;;;;;;;7.47;6.30;;;;;;;7.80;63.34;95184.63;4966460;28;20236;-64
2023/03/02 07:24:35;;;;;;;6.77;6.17;;;;;;;7.79;63.49;95184.78;4962578;28;20224;-65
2023/03/02 07:27:00;;;;;;;7.90;7.20;;;;;;;7.81;63.00;95178.47;4962673;28;20227;-65
2023/03/02 07:29:25;;;;;;;7.93;6.40;;;;;;;7.86;62.74;95181.50;4964565;28;20294;-64
2023/03/02 07:31:55;;;;;;;6.27;5.67;;;;;;;7.88;62.28;95183.97;4965967;28;20192;-65
2023/03/02 07:34:22;;;;;;;7.73;6.87;;;;;;;8.01;61.86;95189.00;4964746;28;20653;-62
2023/03/02 07:36:48;;;;;;;8.10;6.60;;;;;;;7.98;61.84;95187.47;4957721;28;20228;-65
2023/03/02 07:39:13;;;;;;;6.83;6.13;;;;;;;7.80;62.02;95181.19;4967531;28;20238;-64
2023/03/02 07:41:39;;;;;;;6.77;6.27;;;;;;;7.95;62.42;95188.56;4966894;28;20254;-64
2023/03/02 07:44:04;;;;;;;6.90;6.30;;;;;;;7.95;62.17;95191.19;4965943;28;20323;-65
2023/03/02 07:46:30;;;;;;;7.43;6.83;;;;;;;8.00;62.08;95193.41;4965985;28;20192;-65
2023/03/02 07:48:55;;;;;;;8.17;7.37;;;;;;;8.08;61.69;95190.97;4960900;28;20221;-67
2023/03/02 07:51:20;;;;;;;8.00;7.20;;;;;;;8.12;61.83;95191.53;4962185;28;20263;-68
2023/03/02 07:53:46;;;;;;;7.97;7.20;;;;;;;8.09;62.12;95176.06;4949582;28;20223;-68
2023/03/02 07:56:11;;;;;;;8.57;7.77;;;;;;;8.07;62.08;95188.47;4961304;28;20216;-67
2023/03/02 07:58:37;;;;;;;10.53;7.43;;;;;;;7.84;62.08;95183.44;4959440;28;20192;-67
2023/03/02 08:01:03;;;;;;;7.67;6.87;;;;;;;7.82;62.80;95185.34;4963975;28;20244;-68
2023/03/02 08:03:28;;;;;;;6.40;5.83;;;;;;;7.70;62.78;95183.78;4958927;28;20248;-66
2023/03/02 08:05:54;;;;;;;6.83;6.23;;;;;;;7.90;62.19;95182.88;4964668;28;20231;-65
2023/03/02 08:08:19;;;;;;;9.47;6.60;;;;;;;7.78;63.40;95189.19;4963548;28;20209;-67
2023/03/02 08:10:45;;;;;;;6.73;6.03;;;;;;;7.89;62.76;95188.28;4968563;28;20176;-66
2023/03/02 08:13:10;;;;;;;7.50;6.10;;;;;;;7.94;63.23;95186.09;4961353;28;20260;-66
2023/03/02 08:15:36;;;;;;;5.87;5.37;;;;;;;7.98;62.93;95181.41;4963081;28;20236;-68
2023/03/02 08:18:01;;;;;;;6.43;5.83;;;;;;;8.14;62.17;95173.88;4948649;28;20315;-67
2023/03/02 08:20:27;;;;;;;6.83;6.20;;;;;;;8.07;62.25;95183.22;4965897;28;20278;-67
2023/03/02 08:22:52;;;;;;;6.20;5.40;;;;;;;8.09;62.95;95178.69;4964961;28;20777;-68
2023/03/02 08:25:18;;;;;;;7.67;6.27;;;;;;;8.04;63.47;95170.41;4966524;28;20227;-65
2023/03/02 08:27:44;;;;;;;6.77;5.87;;;;;;;8.07;63.84;95173.59;4962990;28;20236;-66
2023/03/02 08:30:11;;;;;;;6.37;5.87;;;;;;;8.19;63.77;95174.31;4967155;28;20248;-65
2023/03/02 08:32:37;;;;;;;6.40;5.83;;;;;;;8.26;63.99;95172.84;4963951;28;20225;-65
2023/03/02 08:35:03;;;;;;;6.87;6.03;;;;;;;8.42;63.43;95168.88;4964071;28;20193;-65
2023/03/02 08:37:29;;;;;;;8.00;6.20;;;;;;;8.23;64.62;95173.06;4960524;28;20658;-68
2023/03/02 08:39:54;;;;;;;8.07;6.70;;;;;;;8.51;64.61;95174.16;4967261;28;20252;-67
2023/03/02 08:42:19;;;;;;;6.70;6.00;;;;;;;8.64;63.76;95170.47;4968739;28;20232;-67
2023/03/02 08:44:45;;;;;;;7.23;6.60;;;;;;;8.17;64.74;95174.44;4968325;28;20212;-68
2023/03/02 08:47:10;;;;;;;7.10;6.37;;;;;;;8.18;64.52;95173.50;4964449;28;20277;-65
2023/03/02 08:49:39;;;;;;;8.17;7.37;;;;;;;8.36;64.43;95171.03;4969590;28;20200;-67
2023/03/02 08:52:04;;;;;;;8.20;7.43;;;;;;;8.44;64.86;95173.03;4981147;28;20225;-66
2023/03/02 08:54:33;;;;;;;7.87;7.00;;;;;;;8.54;64.01;95167.81;4967785;28;20310;-68
2023/03/02 08:56:58;;;;;;;8.87;7.50;;;;;;;8.47;64.02;95169.31;4961852;28;20281;-66
2023/03/02 08:59:24;;;;;;;7.33;6.63;;;;;;;8.68;63.31;95171.84;4964869;28;20254;-66
2023/03/02 09:01:50;;;;;;;6.23;5.73;;;;;;;8.72;62.88;95160.94;4964974;28;20318;-65
2023/03/02 09:04:15;;;;;;;7.57;6.47;;;;;;;8.82;62.45;95167.03;4964347;28;20212;-66
2023/03/02 09:06:42;;;;;;;7.10;6.40;;;;;;;8.85;62.36;95163.31;4965209;28;20228;-66
2023/03/02 09:09:09;;;;;;;10.10;6.80;;;;;;;8.92;62.51;95163.56;4966201;28;20263;-66
2023/03/02 09:11:35;;;;;;;7.17;6.57;;;;;;;8.73;61.85;95157.34;4964859;28;20227;-65
2023/03/02 09:14:01;;;;;;;7.00;6.37;;;;;;;8.78;61.75;95163.00;4960627;28;20226;-67
2023/03/02 09:16:27;;;;;;;6.67;6.07;;;;;;;8.73;61.71;95159.97;4963249;28;20217;-64
2023/03/02 09:18:53;;;;;;;6.90;6.30;;;;;;;8.71;61.65;95164.50;4965293;28;20294;-67
2023/03/02 09:21:19;;;;;;;7.63;6.10;;;;;;;8.70;61.67;95159.41;4962819;28;20228;-68
2023/03/02 09:23:44;;;;;;;8.20;6.10;;;;;;;8.69;61.52;95158.59;4963658;28;20298;-66
2023/03/02 09:26:10;;;;;;;6.90;6.30;;;;;;;8.66;62.42;95156.25;4961886;28;20253;-64
2023/03/02 09:28:36;;;;;;;7.53;6.30;;;;;;;8.85;61.80;95160.69;4965126;28;20283;-65
2023/03/02 09:31:04;;;;;;;7.53;6.83;;;;;;;8.86;63.45;95164.13;4964759;28;20226;-63
2023/03/02 09:33:30;;;;;;;7.17;6.57;;;;;;;8.91;62.13;95159.31;4972456;28;20331;-63
2023/03/02 09:35:55;;;;;;;6.60;5.90;;;;;;;8.80;62.60;95149.78;4968539;28;20339;-64
2023/03/02 09:38:22;;;;;;;7.90;5.90;;;;;;;8.85;63.11;95150.19;4987438;28;20193;-64
2023/03/02 09:40:59;;;;;;;7.37;6.70;;;;;;;8.97;63.24;95156.94;4972365;28;20274;-63
2023/03/02 09:44:00;;;;;;;6.63;6.13;;;;;;;9.07;62.37;95156.13;4984550;28;20297;-64
2023/03/02 09:46:33;;;;;;;7.63;6.93;;;;;;;9.12;61.99;95152.13;4968105;28;20224;-63
2023/03/02 09:49:27;;;;;;;9.60;8.60;;;;;;;9.10;61.26;95151.41;4971579;28;20252;-65
2023/03/02 09:52:19;;;;;;;7.40;5.90;;;;;;;9.09;61.70;95148.91;4926228;29;20225;-65
2023/03/02 09:54:44;;;;;;;6.67;6.10;;;;;;;9.08;62.05;95144.66;4900639;29;20238;-64
2023/03/02 09:57:19;;;;;;;8.93;6.40;;;;;;;8.83;62.25;95147.69;4900235;29;20244;-63
2023/03/02 09:59:49;;;;;;;6.20;5.70;;;;;;;9.08;62.02;95147.28;4922938;29;20236;-63
2023/03/02 10:02:24;;;;;;;6.40;5.80;;;;;;;9.10;61.25;95143.53;4904195;29;20233;-63
2023/03/02 10:04:53;;;;;;;5.63;5.17;;;;;;;9.17;61.13;95144.66;4894802;29;20194;-63
2023/03/02 10:07:29;;;;;;;7.23;6.50;;;;;;;9.12;62.15;95146.88;4925113;29;20240;-64
2023/03/02 10:10:12;;;;;;;6.60;6.00;;;;;;;9.22;61.48;95139.81;4928381;28;20268;-64
2023/03/02 10:13:10;;;;;;;6.60;5.90;;;;;;;9.18;61.81;95148.91;4911758;29;20231;-64
2023/03/02 10:15:57;;;;;;;7.50;6.13;;;;;;;9.19;60.75;95145.31;4928420;29;20217;-64
2023/03/02 10:18:36;;;;;;;6.23;5.67;;;;;;;9.15;60.74;95153.63;4927189;29;20296;-63
2023/03/02 10:21:09;;;;;;;6.27;5.40;;;;;;;9.15;59.92;95148.38;4931553;29;20267;-65
2023/03/02 10:24:00;;;;;;;5.37;4.87;;;;;;;9.15;60.89;95148.38;4929956;29;20226;-65
2023/03/02 10:26:33;;;;;;;6.07;5.37;;;;;;;9.06;60.82;95142.16;4923133;29;20279;-64
2023/03/02 10:29:05;;;;;;;6.80;5.83;;;;;;;9.20;60.68;95148.78;4930697;28;20208;-65
2023/03/02 10:31:32;;;;;;;7.47;5.47;;;;;;;9.25;60.63;95144.78;4981549;28;20224;-66
2023/03/02 10:33:59;;;;;;;7.13;5.43;;;;;;;9.29;60.32;95140.06;4981233;28;20940;-65
2023/03/02 10:36:28;;;;;;;6.00;5.20;;;;;;;9.00;60.72;95135.69;4994386;28;20230;-65
2023/03/02 10:38:54;;;;;;;5.90;4.57;;;;;;;9.02;60.00;95141.63;4976995;28;20251;-65
2023/03/02 10:41:30;;;;;;;5.80;5.30;;;;;;;9.09;60.06;95138.44;4967513;28;20235;-65
2023/03/02 10:44:01;;;;;;;5.57;5.07;;;;;;;9.06;59.91;95134.28;4980822;28;20191;-66
2023/03/02 10:46:39;;;;;;;6.17;5.57;;;;;;;8.93;60.79;95136.41;4985720;28;20243;-65
2023/03/02 10:49:29;;;;;;;5.70;5.20;;;;;;;9.02;59.50;95132.94;4979518;28;20235;-66
2023/03/02 10:52:05;;;;;;;6.40;5.47;;;;;;;9.21;60.31;95125.03;4978310;28;20243;-65
2023/03/02 10:54:33;;;;;;;5.33;4.83;;;;;;;9.38;59.48;95130.50;4981284;28;20231;-65
2023/03/02 10:57:02;;;;;;;5.87;4.87;;;;;;;9.45;58.66;95126.38;4968977;28;20251;-65
2023/03/02 10:59:42;;;;;;;6.77;5.07;;;;;;;9.37;59.29;95127.06;4968502;28;20248;-65
2023/03/02 11:02:13;;;;;;;4.93;4.53;;;;;;;9.47;58.22;95125.25;4963805;28;20243;-65
2023/03/02 11:04:39;;;;;;;5.60;5.10;;;;;;;9.55;58.06;95119.28;4970068;28;20200;-65
2023/03/02 11:07:11;;;;;;;5.73;4.90;;;;;;;9.24;58.75;95116.88;4965692;28;20232;-65
2023/03/02 11:09:37;;;;;;;5.97;5.37;;;;;;;9.46;58.54;95120.97;4971611;28;20211;-65
2023/03/02 11:12:03;;;;;;;4.97;4.57;;;;;;;9.55;58.09;95111.41;4968343;28;20223;-65
2023/03/02 11:14:28;;;;;;;7.10;5.73;;;;;;;9.72;58.06;95112.47;4972828;28;20219;-64
2023/03/02 11:16:54;;;;;;;6.20;5.60;;;;;;;9.59;57.97;95112.78;4972946;28;20201;-59
2023/03/02 11:19:35;;;;;;;5.83;5.33;;;;;;;9.76;56.82;95098.09;4971851;28;20231;-62
2023/03/02 11:22:03;;;;;;;7.77;4.90;;;;;;;9.34;57.71;95116.03;4961758;28;20314;-62
2023/03/02 11:24:40;;;;;;;6.77;4.73;;;;;;;9.58;57.55;95100.63;4960006;28;20225;-61
2023/03/02 11:27:14;;;;;;;6.73;5.17;;;;;;;9.71;56.94;95095.88;4963756;28;20227;-61
2023/03/02 11:29:52;;;;;;;6.37;5.07;;;;;;;9.77;56.22;95096.28;4960353;28;20869;-61
2023/03/02 11:32:27;;;;;;;4.97;4.57;;;;;;;9.77;56.28;95101.53;4964039;28;20222;-63
2023/03/02 11:35:01;;;;;;;6.40;5.00;;;;;;;9.67;56.99;95085.81;4963324;28;20199;-63
2023/03/02 11:37:33;;;;;;;6.67;5.37;;;;;;;9.55;57.03;95085.16;4965661;28;20215;-63
2023/03/02 11:40:07;;;;;;;7.43;5.00;;;;;;;9.76;56.94;95084.94;4957796;28;20224;-63
2023/03/02 11:42:36;;;;;;;8.67;4.77;;;;;;;9.84;55.88;95079.81;4961618;28;20247;-63
2023/03/02 11:45:14;;;;;;;5.40;4.90;;;;;;;9.99;56.06;95084.56;4962269;28;20224;-63
2023/03/02 11:47:44;;;;;;;5.47;4.97;;;;;;;10.13;55.01;95078.78;4965598;28;20220;-63